createdAt,value
2022-10-13T00:09:49.858Z,101444.72
2022-10-13T00:19:52.796Z,101441.33
2022-10-13T00:29:55.974Z,101437.75
2022-10-13T00:39:58.958Z,101434.02
2022-10-13T00:50:03.062Z,101429.11
2022-10-13T01:00:07.764Z,101423.66
2022-10-13T01:10:11.087Z,101415.60
2022-10-13T01:20:48.648Z,101409.98
2022-10-13T01:31:16.323Z,101402.27
2022-10-13T01:41:29.205Z,101399.19
2022-10-13T01:51:34.204Z,101399.26
2022-10-13T02:02:05.048Z,101394.33
2022-10-13T02:12:17.191Z,101385.58
2022-10-13T02:22:22.309Z,101376.13
2022-10-13T02:32:26.106Z,101364.62
2022-10-13T02:42:29.318Z,101362.34
2022-10-13T02:52:35.333Z,101366.11
2022-10-13T03:02:38.533Z,101362.63
2022-10-13T03:12:41.651Z,101367.80
2022-10-13T03:22:49.436Z,101359.81
2022-10-13T03:32:53.349Z,101352.86
2022-10-13T03:42:56.904Z,101346.44
2022-10-13T03:53:00.451Z,101350.80
2022-10-13T04:03:03.689Z,101345.45
2022-10-13T04:13:07.063Z,101352.30
2022-10-13T04:23:10.337Z,101356.23
2022-10-13T04:33:17.070Z,101361.73
2022-10-13T04:43:20.069Z,101369.98
2022-10-13T04:53:26.658Z,101367.98
2022-10-13T05:03:30.066Z,101370.13
2022-10-13T05:13:33.111Z,101370.70
2022-10-13T05:23:36.375Z,101374.14
2022-10-13T05:33:39.787Z,101370.65
2022-10-13T05:43:43.177Z,101366.16
2022-10-13T05:53:55.364Z,101376.63
2022-10-13T06:04:06.350Z,101374.69
2022-10-13T06:14:09.376Z,101386.05
2022-10-13T06:24:12.394Z,101389.89
2022-10-13T06:34:15.745Z,101388.61
2022-10-13T06:44:20.465Z,101384.16
2022-10-13T06:54:23.478Z,101385.28
2022-10-13T07:04:28.121Z,101379.14
2022-10-13T07:14:34.423Z,101378.01
2022-10-13T07:24:37.496Z,101360.54
2022-10-13T07:34:40.564Z,101350.08
2022-10-13T07:44:43.823Z,101349.83
2022-10-13T07:54:46.751Z,101330.10
2022-10-13T08:04:50.106Z,101322.65
2022-10-13T08:14:53.192Z,101324.56
2022-10-13T08:24:56.313Z,101317.02
2022-10-13T08:34:59.501Z,101310.48
2022-10-13T08:45:39.302Z,101301.94
2022-10-13T08:55:56.352Z,101292.84
2022-10-13T09:06:32.315Z,101294.76
2022-10-13T09:16:41.457Z,101293.95
2022-10-13T09:26:50.236Z,101289.77
2022-10-13T09:36:58.522Z,101281.75
2022-10-13T09:47:04.151Z,101274.17
2022-10-13T09:57:26.312Z,101259.70
2022-10-13T10:07:31.877Z,101248.44
2022-10-13T10:17:46.873Z,101242.27
2022-10-13T10:28:10.487Z,101228.75
2022-10-13T10:38:32.494Z,101198.71
2022-10-13T10:48:39.028Z,101198.11
2022-10-13T10:58:53.605Z,101189.13
2022-10-13T11:08:58.343Z,101176.27
2022-10-13T11:19:08.070Z,101161.74
2022-10-13T11:29:20.030Z,101146.87
2022-10-13T11:50:06.404Z,101126.77
2022-10-13T12:00:17.376Z,101117.02
2022-10-13T12:10:30.478Z,101101.06
2022-10-13T12:20:33.568Z,101093.32
2022-10-13T12:30:37.268Z,101075.09
2022-10-13T12:40:43.790Z,101071.52
2022-10-13T12:50:47.043Z,101067.66
2022-10-13T13:01:26.007Z,101053.93
2022-10-13T13:11:39.219Z,101043.38
2022-10-13T13:21:45.553Z,101037.03
2022-10-13T13:31:48.710Z,101034.61
2022-10-13T13:41:51.930Z,101017.84
2022-10-13T13:51:55.315Z,101016.17
2022-10-13T14:01:58.849Z,101010.45
2022-10-13T14:12:02.673Z,101012.27
2022-10-13T14:22:19.974Z,101009.40
2022-10-13T14:32:23.407Z,101003.86
2022-10-13T14:42:26.610Z,101001.71
2022-10-13T14:52:29.691Z,100998.71
2022-10-13T15:02:33.233Z,100995.95
2022-10-13T15:12:36.353Z,100989.05
2022-10-13T15:22:39.428Z,100975.42
2022-10-13T15:32:48.742Z,100955.70
2022-10-13T15:42:52.899Z,100956.55
2022-10-13T15:52:56.051Z,100955.54
2022-10-13T16:02:59.253Z,100950.38
2022-10-13T16:13:02.566Z,100958.13
2022-10-13T16:23:05.647Z,100964.55
2022-10-13T16:33:08.916Z,100958.02
2022-10-13T16:43:11.904Z,100956.79
2022-10-13T16:53:15.276Z,100945.17
2022-10-13T17:03:18.600Z,100942.92
2022-10-13T17:13:21.970Z,100939.92
2022-10-13T17:23:26.586Z,100939.05
2022-10-13T17:33:31.779Z,100933.98
2022-10-13T17:43:37.145Z,100924.20
2022-10-13T17:53:42.217Z,100921.10
2022-10-13T18:03:50.746Z,100924.38
